TAF and METAR

Decoding for American and Canadian METARs and TAFs is not fully implemented.

Could not understand the following METAR

PASY 242358Z 34018KT 10SM OVC004 08/07 A2967 RMK AO2A CIG 003V005 SLP049 T00810072 10083 20064 58005 RVRNO

TAF for Eareckson Air Station

TAF PASY 242200Z 2422/2604 32010G15KT 8000 BR OVC003 620504 QNH2962INS BECMG 2509/2510 31010G15KT 4800 BR BKN007 620603 QNH2954INS TX08/2503Z TN04/2518Z
Report created 25. jun 00:00

between 25. jun 00:00 - 26. jun 06:00

wind 10 knots from NW (320°) with gusts up to 15 knots visibility 8000 meters mist overcast at 300 feet